createdAt,value
2019-02-18T07:55:13.048Z,2.90
2019-02-18T07:57:45.897Z,2.90
2019-02-18T08:00:17.258Z,2.90
2019-02-18T08:02:50.063Z,2.90
2019-02-18T08:10:23.029Z,3.10
2019-02-18T08:12:54.587Z,2.90
2019-02-18T08:20:28.684Z,3.30
2019-02-18T08:22:59.968Z,3.20
2019-02-18T08:25:33.046Z,3.00
2019-02-18T08:28:04.791Z,3.00
2019-02-18T08:35:38.545Z,3.40
2019-02-18T08:40:40.897Z,3.60
2019-02-18T08:48:15.427Z,3.90
2019-02-18T08:50:47.207Z,4.10
2019-02-18T08:55:49.271Z,4.30
2019-02-18T09:01:01.996Z,4.30
2019-02-18T09:03:26.130Z,4.30
2019-02-18T09:05:57.917Z,4.30
2019-02-18T09:08:29.353Z,4.80
2019-02-18T09:11:03.319Z,4.80
2019-02-18T09:13:36.526Z,4.90
2019-02-18T09:16:08.085Z,5.10
2019-02-18T09:18:39.688Z,5.10
2019-02-18T09:21:11.397Z,5.80
2019-02-18T09:24:06.322Z,5.40
2019-02-18T09:26:38.418Z,5.30
2019-02-18T09:31:42.907Z,5.60
2019-02-18T09:34:14.988Z,5.90
2019-02-18T09:39:30.564Z,5.70
2019-02-18T09:44:25.525Z,5.90
2019-02-18T09:46:56.739Z,6.20
2019-02-18T09:49:28.045Z,5.90
2019-02-18T09:51:59.623Z,6.10
2019-02-18T09:54:31.281Z,6.20
2019-02-18T09:57:03.051Z,6.20
2019-02-18T09:59:35.732Z,6.40
2019-02-18T10:02:07.202Z,6.80
2019-02-18T10:04:40.080Z,7.00
2019-02-18T10:07:11.679Z,6.90
2019-02-18T10:09:43.349Z,6.60
2019-02-18T10:12:18.379Z,6.70
2019-02-18T10:17:18.572Z,7.10
2019-02-18T10:19:50.186Z,6.90
2019-02-18T10:22:21.653Z,6.90
2019-02-18T10:27:23.861Z,7.20
2019-02-18T10:32:25.953Z,7.50
2019-02-18T10:34:57.498Z,7.70
2019-02-18T10:47:36.535Z,7.30
2019-02-18T10:50:08.791Z,7.40
2019-02-18T10:52:42.704Z,8.10
2019-02-18T10:57:44.954Z,7.70
2019-02-18T11:02:48.176Z,7.80
2019-02-18T11:10:20.773Z,7.80
2019-02-18T11:12:52.372Z,8.40
2019-02-18T11:15:23.864Z,8.40
2019-02-18T11:17:55.272Z,8.10
2019-02-18T11:20:26.733Z,8.60
2019-02-18T11:25:29.141Z,8.70
2019-02-18T11:28:00.623Z,9.30
2019-02-18T11:30:32.707Z,9.70
2019-02-18T11:33:04.306Z,9.00
2019-02-18T11:35:36.285Z,9.30
2019-02-18T11:38:07.677Z,8.70
2019-02-18T11:40:39.544Z,9.70
2019-02-18T11:43:11.024Z,9.80
2019-02-18T11:45:43.693Z,10.20
2019-02-18T11:48:15.372Z,10.20
2019-02-18T11:50:46.952Z,10.30
2019-02-18T11:53:19.430Z,10.50
2019-02-18T11:55:50.777Z,10.60
2019-02-18T11:58:22.485Z,10.70
2019-02-18T12:00:54.036Z,10.80
2019-02-18T12:03:25.359Z,10.90
2019-02-18T12:05:56.714Z,11.00
2019-02-18T12:08:28.531Z,11.10
2019-02-18T12:11:00.094Z,11.10
2019-02-18T12:13:32.161Z,11.20
2019-02-18T12:16:03.639Z,11.20
2019-02-18T12:18:35.415Z,11.20
2019-02-18T12:21:06.766Z,11.20
2019-02-18T12:23:38.205Z,11.10
2019-02-18T12:26:10.151Z,11.10
2019-02-18T12:28:42.103Z,11.00
2019-02-18T12:31:13.583Z,11.10
2019-02-18T12:33:45.494Z,11.00
2019-02-18T12:36:17.011Z,11.10
2019-02-18T12:38:50.067Z,11.10
2019-02-18T12:41:21.773Z,11.10
2019-02-18T12:43:53.403Z,10.80
2019-02-18T12:46:25.580Z,11.10
2019-02-18T12:48:57.176Z,11.10
2019-02-18T12:51:28.777Z,10.90
2019-02-18T12:54:09.483Z,11.10
2019-02-18T12:56:34.804Z,11.10
2019-02-18T12:59:06.152Z,11.10
2019-02-18T13:01:37.667Z,11.10
2019-02-18T13:04:09.028Z,11.10
2019-02-18T13:06:42.110Z,11.10
2019-02-18T13:09:13.835Z,11.10
2019-02-18T13:11:46.106Z,11.10
2019-02-18T13:14:19.042Z,11.10
2019-02-18T13:16:51.238Z,11.10
2019-02-18T13:19:22.669Z,11.00
2019-02-18T13:21:54.080Z,11.10
2019-02-18T13:24:26.048Z,11.10
2019-02-18T13:26:57.484Z,11.00
2019-02-18T13:29:28.878Z,11.00
2019-02-18T13:32:01.797Z,11.00
2019-02-18T13:34:33.054Z,11.00
2019-02-18T13:37:05.341Z,11.00
2019-02-18T13:39:37.832Z,11.00
2019-02-18T13:42:09.889Z,11.00
2019-02-18T13:44:42.876Z,10.90
2019-02-18T13:47:14.266Z,10.90
2019-02-18T13:49:45.726Z,10.90
2019-02-18T13:52:17.109Z,10.90
2019-02-18T13:54:48.524Z,10.80
2019-02-18T13:57:19.949Z,10.80
2019-02-18T13:59:52.068Z,10.80
2019-02-18T14:02:23.477Z,10.80
2019-02-18T14:04:55.083Z,10.70
2019-02-18T14:07:26.507Z,10.70
2019-02-18T14:09:58.368Z,10.70
2019-02-18T14:12:31.822Z,10.60
2019-02-18T14:15:04.981Z,10.50
2019-02-18T14:17:36.522Z,10.60
2019-02-18T14:20:10.705Z,10.50
2019-02-18T14:22:43.830Z,10.40
2019-02-18T14:25:15.919Z,10.40
2019-02-18T14:27:47.342Z,10.40
2019-02-18T14:30:18.986Z,10.30
2019-02-18T14:32:50.832Z,10.30
2019-02-18T14:35:23.284Z,10.20
2019-02-18T14:37:56.538Z,10.20
2019-02-18T14:40:28.564Z,10.20
2019-02-18T14:43:01.065Z,10.10
2019-02-18T14:45:32.837Z,10.10
2019-02-18T14:48:04.184Z,10.10
2019-02-18T14:50:35.892Z,10.50
2019-02-18T14:53:08.060Z,10.00
2019-02-18T14:55:40.286Z,10.00
2019-02-18T14:58:12.666Z,9.90
2019-02-18T15:00:45.305Z,9.30
2019-02-18T15:03:18.812Z,9.90
2019-02-18T15:05:50.369Z,9.90
2019-02-18T15:08:23.065Z,9.90
2019-02-18T15:10:55.041Z,9.80
2019-02-18T15:13:27.021Z,9.80
2019-02-18T15:15:58.516Z,10.00
2019-02-18T15:18:30.069Z,9.70
2019-02-18T15:21:01.676Z,9.40
2019-02-18T15:23:34.725Z,9.60
2019-02-18T15:26:06.562Z,9.50
2019-02-18T15:28:40.777Z,9.40
2019-02-18T15:31:12.831Z,9.00
2019-02-18T15:33:49.805Z,9.30
2019-02-18T15:36:32.407Z,9.30
2019-02-18T15:39:12.703Z,8.90
2019-02-18T15:44:51.652Z,8.90
2019-02-18T15:47:13.674Z,8.80
2019-02-18T15:49:55.088Z,9.00
2019-02-18T15:52:51.566Z,8.40
2019-02-18T15:58:11.680Z,8.40
2019-02-18T16:01:15.872Z,8.50
2019-02-18T16:04:17.298Z,8.50
2019-02-18T16:06:39.950Z,8.00
2019-02-18T16:09:14.575Z,7.80
2019-02-18T16:11:57.673Z,7.70
2019-02-18T16:14:35.536Z,7.60
2019-02-18T16:17:13.098Z,7.40
2019-02-18T16:19:50.678Z,7.60
2019-02-18T16:22:31.273Z,7.20
2019-02-18T16:25:02.816Z,7.40
2019-02-18T16:27:34.768Z,7.30
2019-02-18T16:30:09.747Z,6.70
2019-02-18T16:32:45.588Z,7.60
2019-02-18T16:35:16.920Z,6.80
2019-02-18T16:37:49.784Z,6.80
2019-02-18T16:40:22.141Z,6.80
2019-02-18T16:45:29.154Z,6.30
2019-02-18T16:48:00.627Z,6.30
2019-02-18T16:53:08.425Z,6.10
2019-02-18T16:55:39.829Z,6.90
2019-02-18T17:00:44.629Z,5.90
2019-02-18T17:03:16.016Z,5.80
2019-02-18T17:05:47.533Z,5.70
2019-02-18T17:08:19.764Z,5.50
2019-02-18T17:10:51.273Z,5.70
2019-02-18T17:18:26.827Z,5.50
2019-02-18T17:20:58.325Z,5.40
2019-02-18T17:26:02.172Z,5.60
2019-02-18T17:36:12.037Z,5.10
2019-02-18T17:46:25.930Z,4.20
2019-02-18T17:48:58.106Z,5.00
2019-02-18T17:51:33.998Z,4.70
2019-02-18T18:01:46.642Z,4.50
2019-02-18T18:06:51.165Z,4.70
2019-02-18T18:11:57.320Z,4.50
2019-02-18T18:19:36.492Z,4.60
2019-02-18T18:22:07.941Z,4.10
2019-02-18T18:24:40.908Z,4.30
2019-02-18T18:27:12.341Z,4.30
2019-02-18T18:39:53.401Z,4.40
2019-02-18T18:45:04.947Z,4.60
2019-02-18T18:47:54.367Z,5.40
2019-02-18T18:50:35.312Z,4.80
2019-02-18T19:00:55.712Z,5.40
2019-02-18T19:06:13.020Z,5.10
2019-02-18T19:08:52.900Z,5.20
2019-02-18T19:16:34.609Z,5.10
2019-02-18T19:19:44.881Z,5.20
2019-02-18T19:22:33.549Z,5.30
2019-02-18T19:25:05.327Z,5.00
2019-02-18T19:38:27.370Z,5.00
2019-02-18T19:40:58.684Z,5.00
2019-02-18T19:43:32.353Z,5.00
2019-02-18T19:46:13.238Z,5.00
2019-02-18T19:51:33.676Z,4.90
2019-02-18T19:54:39.096Z,4.90
2019-02-18T19:57:14.156Z,4.70
2019-02-18T19:59:48.477Z,4.90
2019-02-18T20:02:26.876Z,4.90
2019-02-18T20:05:02.914Z,4.80
2019-02-18T20:07:37.658Z,4.80
2019-02-18T20:10:10.317Z,4.70
2019-02-18T20:12:43.845Z,4.70
2019-02-18T20:17:54.531Z,4.60
2019-02-18T20:20:27.322Z,4.60
2019-02-18T20:22:58.817Z,4.50
2019-02-18T20:25:30.843Z,4.50
2019-02-18T20:33:04.977Z,4.40
2019-02-18T20:35:40.658Z,4.40
2019-02-18T20:38:12.665Z,4.40
2019-02-18T20:40:44.125Z,4.40
2019-02-18T20:43:15.766Z,4.30
2019-02-18T20:45:47.316Z,4.30
2019-02-18T20:48:19.003Z,4.10
2019-02-18T20:50:51.037Z,4.10
2019-02-18T20:53:22.401Z,4.10
2019-02-18T20:55:53.790Z,4.00
2019-02-18T20:58:25.157Z,4.00
2019-02-18T21:00:57.339Z,3.90
2019-02-18T21:03:28.726Z,4.00
2019-02-18T21:06:00.230Z,4.00
2019-02-18T21:08:32.945Z,4.00
2019-02-18T21:16:06.220Z,4.40
2019-02-18T21:21:09.900Z,3.90
2019-02-18T21:23:41.725Z,4.00
2019-02-18T21:26:13.402Z,4.10
2019-02-18T21:28:44.743Z,4.00
2019-02-18T21:33:46.815Z,3.70
2019-02-18T21:36:18.269Z,3.90
2019-02-18T21:41:20.349Z,3.60
2019-02-18T21:43:51.648Z,3.80
2019-02-18T21:46:22.947Z,3.70
2019-02-18T21:48:54.459Z,3.40
2019-02-18T21:56:28.383Z,3.20
2019-02-18T21:58:59.899Z,3.50
2019-02-18T22:01:31.763Z,3.40
2019-02-18T22:09:07.546Z,2.90
2019-02-18T22:11:41.281Z,3.00
2019-02-18T22:14:13.219Z,3.50
2019-02-18T22:19:15.646Z,2.80
2019-02-18T22:24:17.765Z,2.90
2019-02-18T22:26:49.058Z,2.50
2019-02-18T22:41:58.955Z,2.40
2019-02-18T22:47:01.687Z,2.00
2019-02-18T22:59:37.307Z,2.20
2019-02-18T23:04:41.276Z,2.00
2019-02-18T23:07:12.979Z,2.20
2019-02-18T23:14:50.668Z,2.20
2019-02-18T23:17:22.081Z,1.80
2019-02-18T23:19:53.629Z,1.70
2019-02-18T23:22:28.021Z,2.10
2019-02-18T23:24:59.743Z,2.00
2019-02-18T23:27:31.436Z,1.70
2019-02-18T23:30:03.316Z,1.90
2019-02-18T23:35:07.174Z,2.10
2019-02-18T23:37:41.244Z,1.60
2019-02-18T23:40:13.746Z,1.70
2019-02-18T23:47:48.093Z,1.70
2019-02-18T23:50:19.857Z,1.80
2019-02-18T23:52:51.472Z,1.60
2019-02-18T23:55:22.880Z,2.10
